PWSweather.com
Personal Weather Stations
Station Observations
LEXWEATHER
Outlook Drive, Lexington, MA 02421

Outlook DriveLexington, MA 02421

Lat: 42.43983, Lon: -71.24049

Elevation: 276

Station Type: Davis Vantage Pro2 Wireless

Latest ConditionsUpdated 1:24:34 AM EST Saturday, Jan 18, 2020
Currently Today's Max Today's Min Today's Average
Temperature 12.0°F-11.1°C 12.7°F-10.7°C 12.0°F-11.1°C 12.4°F-10.9°C
Dew Point -1.1°F-18.4°C -0.6°F-18.1°C -1.5°F-18.6°C -1.1°F-18.4°C
Winds 0.9 mph NNE1.4 kmh NNE 2.9 mph -4.7 kmh - - 1.9 mph 3.1 kmh
Wind Gusts 0.9 mph1.4 kmh 9.0 mph14.5 kmh - -
Humidity 55% 56% 53% 54%
Pressure 30.56 in1034.9 mb 30.58 in1035.6 mb 30.56 in1034.9 mb -
Hour Temp Dew Point Humidity Winds Wind Gusts Pressure Precip Precip Rate Daily Precip Total
01:24 AM 12.0°F-11.1°C -1.1°F-18.4°C 55% 0.9 mph NNE1.4 kmh NNE 0.9 mph1.4 kmh 30.56 in1034.9 mb 0.00 in0.0 mm 0.00 in0.0 mm 0.00 in0.0 mm
01:23 AM 12.0°F-11.1°C -1.1°F-18.4°C 55% 0.9 mph NNE1.4 kmh NNE 0.9 mph1.4 kmh 30.56 in1034.9 mb 0.00 in0.0 mm 0.00 in0.0 mm 0.00 in0.0 mm
01:22 AM 12.0°F-11.1°C -1.1°F-18.4°C 55% 0.9 mph NNE1.4 kmh NNE 2.9 mph4.7 kmh 30.56 in1034.9 mb 0.00 in0.0 mm 0.00 in0.0 mm 0.00 in0.0 mm
01:21 AM 12.0°F-11.1°C -1.1°F-18.4°C 55% 0.9 mph NNE1.4 kmh NNE 2.9 mph4.7 kmh 30.56 in1034.9 mb 0.00 in0.0 mm 0.00 in0.0 mm 0.00 in0.0 mm
01:20 AM 12.0°F-11.1°C -1.1°F-18.4°C 55% 0.9 mph NNE1.4 kmh NNE 0.9 mph1.4 kmh 30.56 in1034.9 mb 0.00 in0.0 mm 0.00 in0.0 mm 0.00 in0.0 mm
01:19 AM 12.0°F-11.1°C -1.1°F-18.4°C 55% 0.9 mph NNE1.4 kmh NNE 0.9 mph1.4 kmh 30.56 in1034.9 mb 0.00 in0.0 mm 0.00 in0.0 mm 0.00 in0.0 mm
01:18 AM 12.0°F-11.1°C -1.1°F-18.4°C 55% 0.9 mph NNE1.4 kmh NNE 2.9 mph4.7 kmh 30.56 in1034.9 mb 0.00 in0.0 mm 0.00 in0.0 mm 0.00 in0.0 mm
01:17 AM 12.0°F-11.1°C -1.1°F-18.4°C 55% 2.0 mph NNE3.2 kmh NNE 2.9 mph4.7 kmh 30.56 in1034.9 mb 0.00 in0.0 mm 0.00 in0.0 mm 0.00 in0.0 mm
01:16 AM 12.0°F-11.1°C -1.1°F-18.4°C 55% 2.0 mph NNE3.2 kmh NNE 4.0 mph6.4 kmh 30.56 in1034.9 mb 0.00 in0.0 mm 0.00 in0.0 mm 0.00 in0.0 mm
01:15 AM 12.2°F-11.0°C -0.6°F-18.1°C 56% 2.0 mph ENE3.2 kmh ENE 2.0 mph3.2 kmh 30.56 in1034.9 mb 0.00 in0.0 mm 0.00 in0.0 mm 0.00 in0.0 mm
01:14 AM 12.2°F-11.0°C -0.9°F-18.3°C 55% 2.0 mph ENE3.2 kmh ENE 4.0 mph6.4 kmh 30.56 in1034.9 mb 0.00 in0.0 mm 0.00 in0.0 mm 0.00 in0.0 mm
01:13 AM 12.2°F-11.0°C -0.9°F-18.3°C 55% 2.0 mph NNW3.2 kmh NNW 4.0 mph6.4 kmh 30.56 in1034.9 mb 0.00 in0.0 mm 0.00 in0.0 mm 0.00 in0.0 mm
01:12 AM 12.2°F-11.0°C -0.9°F-18.3°C 55% 2.0 mph N3.2 kmh N 4.0 mph6.4 kmh 30.56 in1034.9 mb 0.00 in0.0 mm 0.00 in0.0 mm 0.00 in0.0 mm
01:11 AM 12.2°F-11.0°C -0.9°F-18.3°C 55% 2.0 mph 3.2 kmh 2.9 mph4.7 kmh 30.56 in1034.9 mb 0.00 in0.0 mm 0.00 in0.0 mm 0.00 in0.0 mm
01:10 AM 12.2°F-11.0°C -0.9°F-18.3°C 55% 2.0 mph NNE3.2 kmh NNE 4.0 mph6.4 kmh 30.56 in1034.9 mb 0.00 in0.0 mm 0.00 in0.0 mm 0.00 in0.0 mm
01:09 AM 12.2°F-11.0°C -0.9°F-18.3°C 55% 2.9 mph N4.7 kmh N 0.9 mph1.4 kmh 30.56 in1034.9 mb 0.00 in0.0 mm 0.00 in0.0 mm 0.00 in0.0 mm
01:08 AM 12.2°F-11.0°C -0.9°F-18.3°C 55% 2.9 mph NNW4.7 kmh NNW 6.0 mph9.7 kmh 30.56 in1034.9 mb 0.00 in0.0 mm 0.00 in0.0 mm 0.00 in0.0 mm
01:07 AM 12.2°F-11.0°C -0.9°F-18.3°C 55% 2.9 mph NW4.7 kmh NW 4.9 mph7.9 kmh 30.56 in1034.9 mb 0.00 in0.0 mm 0.00 in0.0 mm 0.00 in0.0 mm
01:06 AM 12.2°F-11.0°C -0.9°F-18.3°C 55% 2.0 mph NW3.2 kmh NW 4.9 mph7.9 kmh 30.56 in1034.9 mb 0.00 in0.0 mm 0.00 in0.0 mm 0.00 in0.0 mm
01:05 AM 12.2°F-11.0°C -0.9°F-18.3°C 55% 2.0 mph N3.2 kmh N 4.0 mph6.4 kmh 30.56 in1034.9 mb 0.00 in0.0 mm 0.00 in0.0 mm 0.00 in0.0 mm
01:04 AM 12.2°F-11.0°C -0.9°F-18.3°C 55% 2.0 mph N3.2 kmh N 4.9 mph7.9 kmh 30.56 in1034.9 mb 0.00 in0.0 mm 0.00 in0.0 mm 0.00 in0.0 mm
01:03 AM 12.2°F-11.0°C -0.9°F-18.3°C 55% 2.0 mph N3.2 kmh N 4.9 mph7.9 kmh 30.56 in1034.9 mb 0.00 in0.0 mm 0.00 in0.0 mm 0.00 in0.0 mm
01:02 AM 12.4°F-10.9°C -0.8°F-18.2°C 55% 2.0 mph N3.2 kmh N 4.0 mph6.4 kmh 30.56 in1034.9 mb 0.00 in0.0 mm 0.00 in0.0 mm 0.00 in0.0 mm
01:01 AM 12.4°F-10.9°C -0.8°F-18.2°C 55% 2.0 mph NW3.2 kmh NW 4.0 mph6.4 kmh 30.56 in1034.9 mb 0.00 in0.0 mm 0.00 in0.0 mm 0.00 in0.0 mm
01:00 AM 12.4°F-10.9°C -0.8°F-18.2°C 55% 2.0 mph NNW3.2 kmh NNW 4.0 mph6.4 kmh 30.56 in1034.9 mb 0.00 in0.0 mm 0.00 in0.0 mm 0.00 in0.0 mm
12:59 AM 12.4°F-10.9°C -0.8°F-18.2°C 55% 2.0 mph NNW3.2 kmh NNW 6.0 mph9.7 kmh 30.56 in1034.9 mb 0.00 in0.0 mm 0.00 in0.0 mm 0.00 in0.0 mm
12:58 AM 12.4°F-10.9°C -0.8°F-18.2°C 55% 2.0 mph N3.2 kmh N 6.0 mph9.7 kmh 30.56 in1034.9 mb 0.00 in0.0 mm 0.00 in0.0 mm 0.00 in0.0 mm
12:57 AM 12.4°F-10.9°C -0.8°F-18.2°C 55% 2.0 mph NW3.2 kmh NW 4.9 mph7.9 kmh 30.56 in1034.9 mb 0.00 in0.0 mm 0.00 in0.0 mm 0.00 in0.0 mm
12:56 AM 12.4°F-10.9°C -0.8°F-18.2°C 55% 2.0 mph ENE3.2 kmh ENE 4.9 mph7.9 kmh 30.56 in1034.9 mb 0.00 in0.0 mm 0.00 in0.0 mm 0.00 in0.0 mm
12:55 AM 12.4°F-10.9°C -1.1°F-18.4°C 54% 2.0 mph NW3.2 kmh NW 2.9 mph4.7 kmh 30.56 in1034.9 mb 0.00 in0.0 mm 0.00 in0.0 mm 0.00 in0.0 mm
12:54 AM 12.4°F-10.9°C -1.1°F-18.4°C 54% 2.0 mph NW3.2 kmh NW 0.9 mph1.4 kmh 30.56 in1034.9 mb 0.00 in0.0 mm 0.00 in0.0 mm 0.00 in0.0 mm
12:53 AM 12.4°F-10.9°C -1.1°F-18.4°C 54% 2.0 mph NNW3.2 kmh NNW 4.0 mph6.4 kmh 30.56 in1034.9 mb 0.00 in0.0 mm 0.00 in0.0 mm 0.00 in0.0 mm
12:52 AM 12.4°F-10.9°C -1.5°F-18.6°C 53% 2.0 mph NNW3.2 kmh NNW 2.9 mph4.7 kmh 30.56 in1034.9 mb 0.00 in0.0 mm 0.00 in0.0 mm 0.00 in0.0 mm
12:51 AM 12.4°F-10.9°C -1.1°F-18.4°C 54% 2.0 mph N3.2 kmh N 4.0 mph6.4 kmh 30.56 in1034.9 mb 0.00 in0.0 mm 0.00 in0.0 mm 0.00 in0.0 mm
12:50 AM 12.4°F-10.9°C -1.1°F-18.4°C 54% 2.0 mph N3.2 kmh N 4.0 mph6.4 kmh 30.56 in1034.9 mb 0.00 in0.0 mm 0.00 in0.0 mm 0.00 in0.0 mm
12:49 AM 12.4°F-10.9°C -1.1°F-18.4°C 54% 2.0 mph N3.2 kmh N 7.0 mph11.3 kmh 30.56 in1034.9 mb 0.00 in0.0 mm 0.00 in0.0 mm 0.00 in0.0 mm
12:48 AM 12.4°F-10.9°C -1.1°F-18.4°C 54% 2.0 mph N3.2 kmh N 7.0 mph11.3 kmh 30.56 in1034.9 mb 0.00 in0.0 mm 0.00 in0.0 mm 0.00 in0.0 mm
12:47 AM 12.4°F-10.9°C -1.1°F-18.4°C 54% 2.0 mph NNW3.2 kmh NNW 4.0 mph6.4 kmh 30.56 in1034.9 mb 0.00 in0.0 mm 0.00 in0.0 mm 0.00 in0.0 mm
12:46 AM 12.4°F-10.9°C -1.1°F-18.4°C 54% 2.0 mph N3.2 kmh N 4.0 mph6.4 kmh 30.56 in1034.9 mb 0.00 in0.0 mm 0.00 in0.0 mm 0.00 in0.0 mm
12:45 AM 12.4°F-10.9°C -1.1°F-18.4°C 54% 2.0 mph NNE3.2 kmh NNE 4.9 mph7.9 kmh 30.56 in1034.9 mb 0.00 in0.0 mm 0.00 in0.0 mm 0.00 in0.0 mm
12:44 AM 12.4°F-10.9°C -1.1°F-18.4°C 54% 2.0 mph N3.2 kmh N 4.0 mph6.4 kmh 30.56 in1034.9 mb 0.00 in0.0 mm 0.00 in0.0 mm 0.00 in0.0 mm
12:43 AM 12.4°F-10.9°C -1.1°F-18.4°C 54% 2.0 mph N3.2 kmh N 2.9 mph4.7 kmh 30.56 in1034.9 mb 0.00 in0.0 mm 0.00 in0.0 mm 0.00 in0.0 mm
12:42 AM 12.4°F-10.9°C -1.1°F-18.4°C 54% 2.0 mph N3.2 kmh N 5.0 mph8.0 kmh 30.56 in1034.9 mb 0.00 in0.0 mm 0.00 in0.0 mm 0.00 in0.0 mm
12:41 AM 12.4°F-10.9°C -1.1°F-18.4°C 54% 2.0 mph NNW3.2 kmh NNW 2.9 mph4.7 kmh 30.56 in1034.9 mb 0.00 in0.0 mm 0.00 in0.0 mm 0.00 in0.0 mm
12:40 AM 12.6°F-10.8°C -0.9°F-18.3°C 54% 2.0 mph N3.2 kmh N 2.9 mph4.7 kmh 30.56 in1034.9 mb 0.00 in0.0 mm 0.00 in0.0 mm 0.00 in0.0 mm
12:39 AM 12.6°F-10.8°C -0.9°F-18.3°C 54% 2.0 mph NW3.2 kmh NW 2.9 mph4.7 kmh 30.56 in1034.9 mb 0.00 in0.0 mm 0.00 in0.0 mm 0.00 in0.0 mm
12:38 AM 12.6°F-10.8°C -0.9°F-18.3°C 54% 2.0 mph NNW3.2 kmh NNW 4.0 mph6.4 kmh 30.56 in1034.9 mb 0.00 in0.0 mm 0.00 in0.0 mm 0.00 in0.0 mm
12:37 AM 12.6°F-10.8°C -0.9°F-18.3°C 54% 2.0 mph NW3.2 kmh NW 4.0 mph6.4 kmh 30.56 in1034.9 mb 0.00 in0.0 mm 0.00 in0.0 mm 0.00 in0.0 mm
12:36 AM 12.6°F-10.8°C -0.9°F-18.3°C 54% 2.0 mph NW3.2 kmh NW 2.9 mph4.7 kmh 30.56 in1034.9 mb 0.00 in0.0 mm 0.00 in0.0 mm 0.00 in0.0 mm
12:35 AM 12.6°F-10.8°C -0.9°F-18.3°C 54% 2.0 mph NW3.2 kmh NW 4.0 mph6.4 kmh 30.56 in1034.9 mb 0.00 in0.0 mm 0.00 in0.0 mm 0.00 in0.0 mm
12:34 AM 12.6°F-10.8°C -0.9°F-18.3°C 54% 2.0 mph N3.2 kmh N 4.0 mph6.4 kmh 30.56 in1034.9 mb 0.00 in0.0 mm 0.00 in0.0 mm 0.00 in0.0 mm
12:33 AM 12.6°F-10.8°C -0.9°F-18.3°C 54% 2.0 mph N3.2 kmh N 4.0 mph6.4 kmh 30.56 in1034.9 mb 0.00 in0.0 mm 0.00 in0.0 mm 0.00 in0.0 mm
12:32 AM 12.6°F-10.8°C -0.9°F-18.3°C 54% 2.0 mph N3.2 kmh N 2.9 mph4.7 kmh 30.56 in1034.9 mb 0.00 in0.0 mm 0.00 in0.0 mm 0.00 in0.0 mm
12:31 AM 12.6°F-10.8°C -1.3°F-18.5°C 53% 2.0 mph NE3.2 kmh NE 4.0 mph6.4 kmh 30.56 in1034.9 mb 0.00 in0.0 mm 0.00 in0.0 mm 0.00 in0.0 mm
12:30 AM 12.6°F-10.8°C -1.3°F-18.5°C 53% 2.0 mph NW3.2 kmh NW 2.9 mph4.7 kmh 30.56 in1034.9 mb 0.00 in0.0 mm 0.00 in0.0 mm 0.00 in0.0 mm
12:29 AM 12.6°F-10.8°C -1.3°F-18.5°C 53% 2.0 mph NW3.2 kmh NW 4.9 mph7.9 kmh 30.56 in1034.9 mb 0.00 in0.0 mm 0.00 in0.0 mm 0.00 in0.0 mm
12:28 AM 12.6°F-10.8°C -0.9°F-18.3°C 54% 2.0 mph NNE3.2 kmh NNE 4.9 mph7.9 kmh 30.56 in1034.9 mb 0.00 in0.0 mm 0.00 in0.0 mm 0.00 in0.0 mm
12:27 AM 12.6°F-10.8°C -0.9°F-18.3°C 54% 2.0 mph N3.2 kmh N 4.0 mph6.4 kmh 30.56 in1034.9 mb 0.00 in0.0 mm 0.00 in0.0 mm 0.00 in0.0 mm
12:26 AM 12.6°F-10.8°C -0.9°F-18.3°C 54% 2.0 mph N3.2 kmh N 4.0 mph6.4 kmh 30.56 in1034.9 mb 0.00 in0.0 mm 0.00 in0.0 mm 0.00 in0.0 mm
12:25 AM 12.6°F-10.8°C -1.3°F-18.5°C 53% 2.0 mph NNW3.2 kmh NNW 2.0 mph3.2 kmh 30.57 in1035.2 mb 0.00 in0.0 mm 0.00 in0.0 mm 0.00 in0.0 mm
12:24 AM 12.6°F-10.8°C -1.3°F-18.5°C 53% 2.0 mph NNW3.2 kmh NNW 4.9 mph7.9 kmh 30.57 in1035.2 mb 0.00 in0.0 mm 0.00 in0.0 mm 0.00 in0.0 mm
12:23 AM 12.6°F-10.8°C -1.3°F-18.5°C 53% 2.0 mph N3.2 kmh N 6.0 mph9.7 kmh 30.57 in1035.2 mb 0.00 in0.0 mm 0.00 in0.0 mm 0.00 in0.0 mm
12:22 AM 12.6°F-10.8°C -1.3°F-18.5°C 53% 0.9 mph NE1.4 kmh NE 2.9 mph4.7 kmh 30.57 in1035.2 mb 0.00 in0.0 mm 0.00 in0.0 mm 0.00 in0.0 mm
12:21 AM 12.6°F-10.8°C -1.3°F-18.5°C 53% 2.0 mph N3.2 kmh N 2.9 mph4.7 kmh 30.57 in1035.2 mb 0.00 in0.0 mm 0.00 in0.0 mm 0.00 in0.0 mm
12:20 AM 12.6°F-10.8°C -1.3°F-18.5°C 53% 2.0 mph N3.2 kmh N 2.9 mph4.7 kmh 30.57 in1035.2 mb 0.00 in0.0 mm 0.00 in0.0 mm 0.00 in0.0 mm
12:19 AM 12.6°F-10.8°C -1.3°F-18.5°C 53% 2.0 mph N3.2 kmh N 2.0 mph3.2 kmh 30.57 in1035.2 mb 0.00 in0.0 mm 0.00 in0.0 mm 0.00 in0.0 mm
12:18 AM 12.6°F-10.8°C -1.3°F-18.5°C 53% 2.0 mph NW3.2 kmh NW 2.9 mph4.7 kmh 30.57 in1035.2 mb 0.00 in0.0 mm 0.00 in0.0 mm 0.00 in0.0 mm
12:17 AM 12.6°F-10.8°C -1.3°F-18.5°C 53% 2.0 mph NNW3.2 kmh NNW 9.0 mph14.5 kmh 30.57 in1035.2 mb 0.00 in0.0 mm 0.00 in0.0 mm 0.00 in0.0 mm
12:15 AM 12.6°F-10.8°C -1.3°F-18.5°C 53% 2.9 mph N4.7 kmh N 4.0 mph6.4 kmh 30.58 in1035.6 mb 0.00 in0.0 mm 0.00 in0.0 mm 0.00 in0.0 mm
12:14 AM 12.6°F-10.8°C -1.3°F-18.5°C 53% 2.0 mph N3.2 kmh N 4.0 mph6.4 kmh 30.58 in1035.6 mb 0.00 in0.0 mm 0.00 in0.0 mm 0.00 in0.0 mm
12:13 AM 12.6°F-10.8°C -1.3°F-18.5°C 53% 2.0 mph N3.2 kmh N 4.0 mph6.4 kmh 30.58 in1035.6 mb 0.00 in0.0 mm 0.00 in0.0 mm 0.00 in0.0 mm
12:12 AM 12.6°F-10.8°C -1.3°F-18.5°C 53% 2.0 mph N3.2 kmh N 4.0 mph6.4 kmh 30.58 in1035.6 mb 0.00 in0.0 mm 0.00 in0.0 mm 0.00 in0.0 mm
12:11 AM 12.6°F-10.8°C -1.3°F-18.5°C 53% 2.0 mph N3.2 kmh N 4.0 mph6.4 kmh 30.58 in1035.6 mb 0.00 in0.0 mm 0.00 in0.0 mm 0.00 in0.0 mm
12:10 AM 12.6°F-10.8°C -1.3°F-18.5°C 53% 2.0 mph NW3.2 kmh NW 4.0 mph6.4 kmh 30.58 in1035.6 mb 0.00 in0.0 mm 0.00 in0.0 mm 0.00 in0.0 mm
12:09 AM 12.6°F-10.8°C -1.3°F-18.5°C 53% 2.0 mph NNW3.2 kmh NNW 6.0 mph9.7 kmh 30.58 in1035.6 mb 0.00 in0.0 mm 0.00 in0.0 mm 0.00 in0.0 mm
12:08 AM 12.6°F-10.8°C -1.3°F-18.5°C 53% 2.0 mph NNW3.2 kmh NNW 8.1 mph13.0 kmh 30.58 in1035.6 mb 0.00 in0.0 mm 0.00 in0.0 mm 0.00 in0.0 mm
12:07 AM 12.6°F-10.8°C -0.9°F-18.3°C 54% 0.9 mph NNW1.4 kmh NNW 9.0 mph14.5 kmh 30.58 in1035.6 mb 0.00 in0.0 mm 0.00 in0.0 mm 0.00 in0.0 mm
12:06 AM 12.6°F-10.8°C -0.9°F-18.3°C 54% 0.9 mph NW1.4 kmh NW 9.0 mph14.5 kmh 30.58 in1035.6 mb 0.00 in0.0 mm 0.00 in0.0 mm 0.00 in0.0 mm
12:05 AM 12.7°F-10.7°C -0.8°F-18.2°C 54% 0.9 mph N1.4 kmh N 0.9 mph1.4 kmh 30.58 in1035.6 mb 0.00 in0.0 mm 0.00 in0.0 mm 0.00 in0.0 mm
12:04 AM 12.7°F-10.7°C -1.1°F-18.4°C 53% 2.0 mph NNW3.2 kmh NNW 0.9 mph1.4 kmh 30.58 in1035.6 mb 0.00 in0.0 mm 0.00 in0.0 mm 0.00 in0.0 mm
12:03 AM 12.7°F-10.7°C -1.1°F-18.4°C 53% 2.0 mph NW3.2 kmh NW 2.0 mph3.2 kmh 30.58 in1035.6 mb 0.00 in0.0 mm 0.00 in0.0 mm 0.00 in0.0 mm
12:02 AM 12.7°F-10.7°C -1.1°F-18.4°C 53% 2.0 mph N3.2 kmh N 2.0 mph3.2 kmh 30.58 in1035.6 mb 0.00 in0.0 mm 0.00 in0.0 mm 0.00 in0.0 mm
12:01 AM 12.6°F-10.8°C -1.3°F-18.5°C 53% 2.0 mph 3.2 kmh 4.9 mph7.9 kmh 30.58 in1035.6 mb 0.00 in0.0 mm 0.00 in0.0 mm 0.00 in0.0 mm
12:00 AM 12.6°F-10.8°C -1.3°F-18.5°C 53% 2.0 mph NW3.2 kmh NW 4.9 mph7.9 kmh 30.58 in1035.6 mb 0.00 in0.0 mm 0.00 in0.0 mm 0.00 in0.0 mm